Time;durP1;ratioP1;P1;durP2;ratioP2;P2;SDS_P1;SDS_P2;PMS_P1;PMS_P2;Temp;Humidity;BMP_temperature;BMP_pressure;BME280_temperature;BME280_humidity;BME280_pressure;Samples;Min_cycle;Max_cycle;Signal;HPM_P1;HPM_P2
2021/08/24 00:00:33;;;;;;;13.60;12.90;;;23.10;99.90;;;;;;2609349;54;20410;-60
2021/08/24 00:03:05;;;;;;;13.80;13.10;;;23.10;99.90;;;;;;2610297;54;20363;-59
2021/08/24 00:05:37;;;;;;;13.90;13.10;;;23.10;99.90;;;;;;2610066;54;20405;-59
2021/08/24 00:08:07;;;;;;;13.87;13.27;;;23.10;99.90;;;;;;2609709;54;20742;-60
2021/08/24 00:10:40;;;;;;;14.90;14.17;;;23.10;99.90;;;;;;2610432;54;20429;-60
2021/08/24 00:13:09;;;;;;;14.40;13.53;;;23.10;99.90;;;;;;2609389;54;20517;-60
2021/08/24 00:15:38;;;;;;;13.97;13.27;;;23.10;99.90;;;;;;2609987;54;20379;-60
2021/08/24 00:18:11;;;;;;;15.03;14.13;;;23.10;99.90;;;;;;2608330;54;20399;-60
2021/08/24 00:20:40;;;;;;;14.50;13.83;;;23.10;99.90;;;;;;2607448;54;20474;-59
2021/08/24 00:23:13;;;;;;;14.60;13.90;;;23.10;99.90;;;;;;2605923;54;20433;-59
2021/08/24 00:25:43;;;;;;;14.57;13.87;;;23.10;99.90;;;;;;2607086;54;20749;-60
2021/08/24 00:28:12;;;;;;;14.43;13.40;;;23.10;99.90;;;;;;2605475;54;20518;-58
2021/08/24 00:30:41;;;;;;;14.03;13.33;;;23.10;99.90;;;;;;2605533;39;20957;-59
2021/08/24 00:33:14;;;;;;;14.33;13.50;;;23.10;99.90;;;;;;2609650;54;20407;-58
2021/08/24 00:35:45;;;;;;;14.03;13.33;;;23.10;99.90;;;;;;2609069;54;20398;-60
2021/08/24 00:38:17;;;;;;;13.70;13.00;;;23.10;99.90;;;;;;2609008;54;20542;-60
2021/08/24 00:40:53;;;;;;;13.90;13.10;;;23.10;99.80;;;;;;2610073;54;20498;-60
2021/08/24 00:43:23;;;;;;;14.10;13.20;;;23.10;99.80;;;;;;2610424;54;20421;-60
2021/08/24 00:45:56;;;;;;;14.30;13.50;;;23.10;99.70;;;;;;2611056;31;20897;-59
2021/08/24 00:48:32;;;;;;;15.17;14.00;;;23.10;99.70;;;;;;2608603;54;20403;-59
2021/08/24 00:51:02;;;;;;;15.13;14.03;;;23.10;99.70;;;;;;2608813;54;20424;-60
2021/08/24 00:53:35;;;;;;;16.10;14.33;;;23.10;99.70;;;;;;2609165;54;20418;-60
2021/08/24 00:56:07;;;;;;;15.13;14.03;;;23.10;99.70;;;;;;2610434;54;20437;-60
2021/08/24 00:58:37;;;;;;;14.10;13.03;;;23.10;99.70;;;;;;2609086;54;20371;-60
2021/08/24 01:01:07;;;;;;;13.80;13.00;;;23.10;99.60;;;;;;2609627;54;20565;-60
2021/08/24 01:03:44;;;;;;;15.10;13.70;;;23.10;99.60;;;;;;2600302;54;20391;-60
2021/08/24 01:06:24;;;;;;;14.23;13.43;;;23.10;99.60;;;;;;2587388;54;20391;-60
2021/08/24 01:09:04;;;;;;;14.47;13.50;;;23.10;99.50;;;;;;2583397;39;20514;-59
2021/08/24 01:11:43;;;;;;;13.57;12.80;;;23.10;99.50;;;;;;2574134;54;20592;-58
2021/08/24 01:14:21;;;;;;;15.30;14.23;;;23.00;99.40;;;;;;2606082;54;21205;-60
2021/08/24 01:17:00;;;;;;;15.10;14.00;;;23.10;99.40;;;;;;2606676;54;20875;-60
2021/08/24 01:19:57;;;;;;;14.40;13.60;;;23.10;99.40;;;;;;2606581;54;20445;-60
2021/08/24 01:23:04;;;;;;;14.60;13.97;;;23.00;99.70;;;;;;2607768;54;21216;-59
2021/08/24 01:25:39;;;;;;;14.17;13.37;;;23.00;99.40;;;;;;2608662;54;21305;-60
2021/08/24 01:28:14;;;;;;;14.00;13.30;;;23.00;99.60;;;;;;2609646;54;20425;-60
2021/08/24 01:31:05;;;;;;;13.37;12.67;;;23.00;99.30;;;;;;2610304;54;20948;-59
2021/08/24 01:33:44;;;;;;;14.23;13.33;;;23.00;99.20;;;;;;2609389;54;20398;-60
2021/08/24 01:36:25;;;;;;;14.10;13.20;;;23.00;99.20;;;;;;2609058;54;20407;-59
2021/08/24 01:39:03;;;;;;;14.70;13.90;;;23.00;99.20;;;;;;2608859;54;20382;-60
2021/08/24 01:41:53;;;;;;;14.00;13.30;;;23.00;99.20;;;;;;2609272;54;20422;-59
2021/08/24 01:44:24;;;;;;;14.37;13.57;;;23.00;99.20;;;;;;2609347;54;20461;-60
2021/08/24 01:47:00;;;;;;;14.73;13.70;;;23.00;99.20;;;;;;2608313;39;21151;-59
2021/08/24 01:49:35;;;;;;;15.03;14.10;;;23.00;99.10;;;;;;2609538;54;20426;-59
2021/08/24 01:52:11;;;;;;;13.83;13.13;;;23.00;99.10;;;;;;2608541;39;20856;-59
2021/08/24 01:54:43;;;;;;;14.30;13.30;;;23.00;99.10;;;;;;2609163;31;20738;-60
2021/08/24 01:57:17;;;;;;;13.93;13.23;;;23.00;99.10;;;;;;2607416;54;20457;-60
2021/08/24 01:59:52;;;;;;;13.70;12.90;;;23.00;99.00;;;;;;2607441;39;20788;-60
2021/08/24 02:02:27;;;;;;;14.30;13.60;;;23.00;98.90;;;;;;2607025;51;20406;-59
2021/08/24 02:05:01;;;;;;;14.13;13.50;;;23.00;98.90;;;;;;2606778;54;20405;-60
2021/08/24 02:07:36;;;;;;;13.93;13.20;;;23.00;98.90;;;;;;2606952;39;20668;-59
2021/08/24 02:10:10;;;;;;;13.40;12.70;;;23.00;99.00;;;;;;2605518;54;20382;-58
2021/08/24 02:12:43;;;;;;;14.23;13.53;;;23.00;99.00;;;;;;2608761;54;20378;-60
2021/08/24 02:15:13;;;;;;;14.70;13.70;;;23.00;98.90;;;;;;2608966;54;20510;-60
2021/08/24 02:17:46;;;;;;;14.43;13.60;;;23.00;98.80;;;;;;2609030;54;20406;-60
2021/08/24 02:20:20;;;;;;;14.77;13.90;;;23.00;98.80;;;;;;2609954;54;20394;-59
2021/08/24 02:22:56;;;;;;;14.67;13.77;;;23.00;98.70;;;;;;2609464;54;20398;-59
2021/08/24 02:25:28;;;;;;;15.73;14.53;;;23.00;98.70;;;;;;2608171;54;20433;-60
2021/08/24 02:28:03;;;;;;;14.70;13.80;;;23.00;98.70;;;;;;2608243;54;20399;-60
2021/08/24 02:30:34;;;;;;;14.00;13.20;;;23.00;98.60;;;;;;2608948;54;20414;-60
2021/08/24 02:33:06;;;;;;;15.50;14.50;;;23.00;98.60;;;;;;2609703;54;20529;-60
2021/08/24 02:35:40;;;;;;;15.20;14.30;;;23.00;98.60;;;;;;2609419;54;20486;-59
2021/08/24 02:38:16;;;;;;;13.97;13.47;;;23.00;98.60;;;;;;2609535;54;20422;-59
2021/08/24 02:40:52;;;;;;;15.17;14.10;;;23.00;98.70;;;;;;2609065;54;20473;-60
2021/08/24 02:43:27;;;;;;;15.43;14.53;;;23.00;98.60;;;;;;2608031;54;20984;-58
2021/08/24 02:46:01;;;;;;;15.30;14.20;;;23.00;98.60;;;;;;2609754;54;20432;-59
2021/08/24 02:48:34;;;;;;;15.20;14.27;;;23.00;98.60;;;;;;2610579;54;20410;-60
2021/08/24 02:51:04;;;;;;;15.07;14.17;;;23.00;98.50;;;;;;2609274;54;20911;-60
2021/08/24 02:53:41;;;;;;;14.40;13.77;;;23.00;98.50;;;;;;2609270;54;20398;-59
2021/08/24 02:56:11;;;;;;;14.70;13.93;;;23.00;98.50;;;;;;2609754;46;20460;-59
2021/08/24 02:58:40;;;;;;;17.57;16.47;;;23.00;98.40;;;;;;2609500;54;20402;-60
2021/08/24 03:01:09;;;;;;;16.03;15.20;;;23.00;98.30;;;;;;2608976;54;20379;-59
2021/08/24 03:03:38;;;;;;;15.57;14.70;;;23.00;98.20;;;;;;2610453;54;20423;-59
2021/08/24 03:06:07;;;;;;;14.80;13.97;;;22.90;98.20;;;;;;2609853;54;20453;-59
2021/08/24 03:08:39;;;;;;;13.83;13.23;;;22.90;98.20;;;;;;2609250;54;20403;-58
2021/08/24 03:11:09;;;;;;;14.40;13.60;;;23.00;98.30;;;;;;2610709;54;20402;-59
2021/08/24 03:13:46;;;;;;;15.80;15.00;;;22.90;98.20;;;;;;2610127;54;20403;-60
2021/08/24 03:16:20;;;;;;;16.10;15.00;;;22.90;98.10;;;;;;2609373;54;20458;-59
2021/08/24 03:18:52;;;;;;;16.50;15.33;;;22.90;98.10;;;;;;2610528;54;20398;-60
2021/08/24 03:21:25;;;;;;;15.80;15.00;;;22.90;98.10;;;;;;2608758;54;20422;-60
2021/08/24 03:23:57;;;;;;;15.83;15.03;;;22.90;98.30;;;;;;2611375;39;21089;-58
2021/08/24 03:26:29;;;;;;;15.57;14.77;;;23.00;98.50;;;;;;2607150;54;20457;-60
2021/08/24 03:28:59;;;;;;;16.47;15.60;;;23.00;98.30;;;;;;2605678;54;20876;-59
2021/08/24 03:31:29;;;;;;;16.13;15.27;;;23.00;98.20;;;;;;2605393;47;20521;-59
2021/08/24 03:33:58;;;;;;;16.10;15.40;;;22.90;98.00;;;;;;2607530;54;20419;-60
2021/08/24 03:36:27;;;;;;;16.00;15.20;;;22.90;97.90;;;;;;2610097;54;20441;-59
2021/08/24 03:38:59;;;;;;;16.07;15.20;;;22.90;98.00;;;;;;2609324;54;20962;-59
2021/08/24 03:41:28;;;;;;;16.00;15.20;;;22.90;98.10;;;;;;2608705;54;20442;-59
2021/08/24 03:43:59;;;;;;;15.83;15.03;;;23.00;98.20;;;;;;2608738;54;20403;-59
2021/08/24 03:46:28;;;;;;;16.00;15.20;;;22.90;98.20;;;;;;2607822;54;20903;-60
2021/08/24 03:48:57;;;;;;;16.50;15.50;;;23.00;98.30;;;;;;2608318;54;20407;-59
2021/08/24 03:51:27;;;;;;;17.47;15.07;;;23.00;98.20;;;;;;2610039;54;20395;-60
2021/08/24 03:53:59;;;;;;;15.70;14.70;;;23.00;98.00;;;;;;2610476;39;21046;-60
2021/08/24 03:56:28;;;;;;;15.30;14.50;;;22.90;97.80;;;;;;2609384;54;20569;-60
2021/08/24 03:58:59;;;;;;;15.77;14.87;;;22.90;97.80;;;;;;2607904;54;20403;-59
2021/08/24 04:01:28;;;;;;;15.60;14.80;;;22.90;97.70;;;;;;2605426;54;20418;-60
2021/08/24 04:03:57;;;;;;;16.30;15.40;;;22.90;97.70;;;;;;2607738;54;20398;-58
2021/08/24 04:06:26;;;;;;;15.90;14.80;;;22.90;97.60;;;;;;2608774;54;20419;-60
2021/08/24 04:08:55;;;;;;;15.67;14.77;;;22.90;97.60;;;;;;2608479;54;20399;-59
2021/08/24 04:11:27;;;;;;;17.00;15.87;;;23.00;97.60;;;;;;2608440;54;20406;-60
2021/08/24 04:13:56;;;;;;;16.80;16.00;;;22.90;97.50;;;;;;2608950;54;20397;-59
2021/08/24 04:16:26;;;;;;;16.30;15.40;;;22.90;97.50;;;;;;2608902;54;20438;-59
2021/08/24 04:18:55;;;;;;;16.27;15.47;;;22.90;97.40;;;;;;2608613;39;20772;-59
2021/08/24 04:21:24;;;;;;;16.43;15.37;;;22.90;97.40;;;;;;2608446;54;20490;-61
2021/08/24 04:23:55;;;;;;;16.07;15.37;;;22.90;97.40;;;;;;2607866;54;20415;-60
2021/08/24 04:26:27;;;;;;;16.47;15.77;;;22.90;97.40;;;;;;2607259;47;20451;-60
2021/08/24 04:28:56;;;;;;;16.30;15.50;;;22.90;97.30;;;;;;2606220;50;20413;-59
2021/08/24 04:31:26;;;;;;;16.27;15.50;;;22.90;97.20;;;;;;2604813;54;20387;-60
2021/08/24 04:33:55;;;;;;;16.43;15.63;;;22.90;97.30;;;;;;2604555;54;20423;-59
2021/08/24 04:36:25;;;;;;;16.20;15.30;;;22.90;97.20;;;;;;2602495;39;20673;-59
2021/08/24 04:38:54;;;;;;;16.13;15.20;;;22.90;97.20;;;;;;2602954;39;20722;-59
2021/08/24 04:41:27;;;;;;;16.03;15.27;;;22.90;97.20;;;;;;2603991;54;20437;-60
2021/08/24 04:43:56;;;;;;;17.90;16.70;;;22.90;97.30;;;;;;2604810;54;20409;-60
2021/08/24 04:46:25;;;;;;;16.60;15.80;;;22.90;97.30;;;;;;2604069;54;20406;-59
2021/08/24 04:48:54;;;;;;;17.60;16.70;;;22.90;97.30;;;;;;2602744;54;20414;-60
2021/08/24 04:51:24;;;;;;;16.10;15.30;;;22.90;97.20;;;;;;2602737;47;20434;-60
2021/08/24 04:53:53;;;;;;;16.77;15.63;;;22.90;97.20;;;;;;2602566;54;20952;-60
2021/08/24 04:56:22;;;;;;;15.70;14.90;;;22.90;97.10;;;;;;2596462;47;20454;-59
2021/08/24 04:58:53;;;;;;;16.83;16.00;;;22.90;97.10;;;;;;2602005;54;20403;-60
2021/08/24 05:01:22;;;;;;;16.77;15.73;;;22.90;97.10;;;;;;2600003;54;20406;-60
2021/08/24 05:03:52;;;;;;;16.37;15.40;;;22.90;97.10;;;;;;2599316;54;20411;-60
2021/08/24 05:06:21;;;;;;;16.90;16.10;;;22.90;97.40;;;;;;2598336;54;20923;-60
2021/08/24 05:08:50;;;;;;;17.10;16.20;;;22.90;97.00;;;;;;2597983;54;20375;-60
2021/08/24 05:11:19;;;;;;;16.80;15.90;;;22.90;97.00;;;;;;2596794;39;21124;-60
2021/08/24 05:13:48;;;;;;;17.50;16.60;;;22.90;96.90;;;;;;2595795;54;20478;-59
2021/08/24 05:16:20;;;;;;;17.10;16.30;;;22.90;96.80;;;;;;2593647;54;20398;-60
2021/08/24 05:18:49;;;;;;;18.00;16.97;;;22.80;96.80;;;;;;2590581;54;20398;-60
2021/08/24 05:21:18;;;;;;;18.13;17.23;;;22.80;96.90;;;;;;2589111;47;20485;-59
2021/08/24 05:23:47;;;;;;;15.93;15.20;;;22.90;96.90;;;;;;2591907;54;20414;-59
2021/08/24 05:26:22;;;;;;;16.00;15.20;;;22.80;96.80;;;;;;2587768;39;20848;-59
2021/08/24 05:28:52;;;;;;;18.60;17.10;;;22.90;96.80;;;;;;2586277;54;20418;-60
2021/08/24 05:31:23;;;;;;;17.43;16.47;;;22.80;96.80;;;;;;2586696;54;20418;-60
2021/08/24 05:33:53;;;;;;;16.83;15.93;;;22.90;97.00;;;;;;2584653;54;20375;-60
2021/08/24 05:36:22;;;;;;;16.67;15.80;;;22.90;97.20;;;;;;2585364;39;20777;-59
2021/08/24 05:38:51;;;;;;;17.60;16.37;;;22.90;97.10;;;;;;2584114;47;20900;-60
2021/08/24 05:41:21;;;;;;;16.20;15.30;;;22.90;97.10;;;;;;2581315;54;20406;-60
2021/08/24 05:43:50;;;;;;;16.47;15.57;;;22.90;97.20;;;;;;2583265;39;21098;-60
2021/08/24 05:46:20;;;;;;;17.23;16.23;;;22.90;97.20;;;;;;2582916;54;20406;-60
2021/08/24 05:48:51;;;;;;;17.30;16.03;;;22.90;97.30;;;;;;2578752;39;20868;-59
2021/08/24 05:51:23;;;;;;;16.73;15.73;;;22.90;97.20;;;;;;2576190;54;20371;-60
2021/08/24 05:53:52;;;;;;;17.20;16.23;;;22.90;97.20;;;;;;2574151;54;20493;-60
2021/08/24 05:56:25;;;;;;;16.87;15.97;;;22.90;97.00;;;;;;2576184;54;21463;-59
2021/08/24 05:58:55;;;;;;;17.33;16.33;;;22.90;96.90;;;;;;2576382;54;20430;-60
2021/08/24 06:01:26;;;;;;;17.00;16.20;;;22.90;96.90;;;;;;2568436;39;20586;-60
2021/08/24 06:03:59;;;;;;;17.13;16.10;;;22.90;96.90;;;;;;2571728;54;20883;-60
2021/08/24 06:06:29;;;;;;;17.97;16.87;;;22.90;96.70;;;;;;2565849;54;21072;-59
2021/08/24 06:09:00;;;;;;;17.07;16.07;;;22.90;96.70;;;;;;2564444;54;20715;-60
2021/08/24 06:11:31;;;;;;;18.37;17.20;;;22.90;96.70;;;;;;2571804;47;20488;-60
2021/08/24 06:14:02;;;;;;;17.97;16.77;;;22.90;96.70;;;;;;2567954;54;21554;-60
2021/08/24 06:16:32;;;;;;;17.40;16.30;;;22.90;96.90;;;;;;2568659;54;20418;-60
2021/08/24 06:19:03;;;;;;;18.50;17.30;;;22.90;97.10;;;;;;2574937;54;20496;-60
2021/08/24 06:21:32;;;;;;;18.33;17.03;;;22.90;97.40;;;;;;2578773;54;20402;-60
2021/08/24 06:24:03;;;;;;;17.47;16.27;;;22.90;97.50;;;;;;2575089;39;20706;-60
2021/08/24 06:26:34;;;;;;;17.77;16.70;;;22.90;98.00;;;;;;2570909;54;20453;-59
2021/08/24 06:29:03;;;;;;;18.33;16.83;;;22.90;97.80;;;;;;2572104;47;20438;-60
2021/08/24 06:31:38;;;;;;;17.50;16.50;;;22.90;97.80;;;;;;2573853;54;20503;-60
2021/08/24 06:34:12;;;;;;;17.70;16.70;;;22.90;96.70;;;;;;2570073;54;21046;-60
2021/08/24 06:36:43;;;;;;;18.00;16.90;;;22.90;95.80;;;;;;2563237;46;20418;-60
2021/08/24 06:39:13;;;;;;;17.40;16.40;;;22.80;95.20;;;;;;2570473;47;20395;-60
2021/08/24 06:41:42;;;;;;;18.60;17.20;;;22.70;95.70;;;;;;2573453;54;20418;-60
2021/08/24 06:44:14;;;;;;;17.90;16.67;;;22.70;96.20;;;;;;2571822;54;20387;-60
2021/08/24 06:46:43;;;;;;;18.60;17.23;;;22.80;96.60;;;;;;2572381;54;20449;-60
2021/08/24 06:49:15;;;;;;;17.87;16.80;;;22.80;96.90;;;;;;2574690;54;20375;-60
2021/08/24 06:51:46;;;;;;;21.37;19.77;;;22.80;97.10;;;;;;2576742;54;20410;-60
2021/08/24 06:54:29;;;;;;;20.03;18.53;;;22.80;97.20;;;;;;2574841;51;21608;-60
2021/08/24 06:56:58;;;;;;;20.10;18.50;;;22.90;97.30;;;;;;2576693;54;20434;-60
2021/08/24 06:59:28;;;;;;;21.47;19.73;;;22.90;97.40;;;;;;2575344;54;20494;-60
2021/08/24 07:01:57;;;;;;;20.23;18.80;;;22.90;97.40;;;;;;2567055;54;20402;-60
2021/08/24 07:04:28;;;;;;;23.93;21.70;;;22.90;97.50;;;;;;2571416;54;20466;-60
2021/08/24 07:06:57;;;;;;;22.40;20.63;;;22.90;97.50;;;;;;2574095;54;20425;-60
2021/08/24 07:09:26;;;;;;;23.90;22.07;;;22.90;97.60;;;;;;2571945;54;21713;-60
2021/08/24 07:11:55;;;;;;;25.23;23.10;;;22.90;97.60;;;;;;2571946;54;20407;-60
2021/08/24 07:14:25;;;;;;;28.87;26.13;;;22.90;97.60;;;;;;2576411;54;20371;-61
2021/08/24 07:16:54;;;;;;;29.10;26.30;;;23.00;97.70;;;;;;2572141;54;21666;-61
2021/08/24 07:19:23;;;;;;;30.77;28.00;;;23.00;97.70;;;;;;2570485;54;20723;-58
2021/08/24 07:21:56;;;;;;;28.13;25.67;;;23.00;97.80;;;;;;2564737;39;20751;-60
2021/08/24 07:24:25;;;;;;;31.03;28.00;;;23.00;97.80;;;;;;2558720;54;20826;-59
2021/08/24 07:26:54;;;;;;;29.13;26.70;;;23.00;97.80;;;;;;2561906;54;21123;-60
2021/08/24 07:29:23;;;;;;;28.77;26.10;;;23.00;97.80;;;;;;2541495;54;20407;-60
2021/08/24 07:31:52;;;;;;;27.23;25.03;;;23.00;97.90;;;;;;2557189;54;20387;-60
2021/08/24 07:34:22;;;;;;;23.93;22.13;;;23.00;97.90;;;;;;2567338;39;20813;-60
2021/08/24 07:36:51;;;;;;;25.10;23.17;;;23.10;98.00;;;;;;2565687;54;20441;-60
2021/08/24 07:39:23;;;;;;;23.33;21.73;;;23.10;98.00;;;;;;2570695;54;20427;-59
2021/08/24 07:41:52;;;;;;;21.53;20.17;;;23.00;97.90;;;;;;2573310;54;20399;-60
2021/08/24 07:44:24;;;;;;;21.30;19.97;;;23.10;98.00;;;;;;2571537;54;20441;-60
2021/08/24 07:46:54;;;;;;;21.10;19.90;;;23.10;98.00;;;;;;2573698;51;20410;-60
2021/08/24 07:49:23;;;;;;;20.50;19.40;;;23.10;98.00;;;;;;2570471;54;20410;-60
2021/08/24 07:51:54;;;;;;;21.17;19.87;;;23.10;98.00;;;;;;2572799;39;20976;-60
2021/08/24 07:54:25;;;;;;;19.33;18.20;;;23.10;97.90;;;;;;2564960;54;20399;-61
2021/08/24 07:56:55;;;;;;;19.37;18.27;;;23.10;97.90;;;;;;2572180;54;20445;-61
2021/08/24 07:59:24;;;;;;;18.93;17.73;;;23.10;98.00;;;;;;2565298;39;21171;-61
2021/08/24 08:01:54;;;;;;;18.67;17.60;;;23.10;98.00;;;;;;2569344;54;20391;-60
2021/08/24 08:04:29;;;;;;;18.97;17.77;;;23.10;98.00;;;;;;2565244;54;20407;-60
2021/08/24 08:07:04;;;;;;;17.80;16.70;;;23.10;98.00;;;;;;2571245;54;21392;-61
2021/08/24 08:09:37;;;;;;;18.07;16.77;;;23.10;98.00;;;;;;2573156;54;20414;-60
2021/08/24 08:12:08;;;;;;;17.50;16.50;;;23.10;98.10;;;;;;2566560;39;20749;-60
2021/08/24 08:14:38;;;;;;;17.23;16.37;;;23.10;98.00;;;;;;2566039;39;20734;-60
2021/08/24 08:17:10;;;;;;;17.60;16.40;;;23.10;98.00;;;;;;2566913;39;20629;-60
2021/08/24 08:19:39;;;;;;;17.27;16.00;;;23.10;98.10;;;;;;2567527;54;20440;-60
2021/08/24 08:22:09;;;;;;;17.03;16.03;;;23.10;98.00;;;;;;2571672;54;20418;-59
2021/08/24 08:24:41;;;;;;;17.30;16.20;;;23.10;97.90;;;;;;2569084;54;20434;-60
2021/08/24 08:27:11;;;;;;;16.23;15.30;;;23.10;98.00;;;;;;2564415;54;20966;-60
2021/08/24 08:29:40;;;;;;;16.27;15.47;;;23.10;98.00;;;;;;2566127;39;20766;-60
2021/08/24 08:32:13;;;;;;;17.00;16.00;;;23.10;98.00;;;;;;2566487;54;20949;-60
2021/08/24 08:34:42;;;;;;;17.83;16.93;;;23.10;98.00;;;;;;2569754;54;20379;-60
2021/08/24 08:37:11;;;;;;;16.80;15.60;;;23.10;98.00;;;;;;2572242;54;20874;-61
2021/08/24 08:39:43;;;;;;;15.90;15.10;;;23.10;97.80;;;;;;2571099;54;20423;-60
2021/08/24 08:42:45;;;;;;;16.00;15.10;;;23.10;97.80;;;;;;2570656;54;20430;-60
2021/08/24 08:45:19;;;;;;;16.13;15.37;;;23.10;97.90;;;;;;2567654;54;20497;-60
2021/08/24 08:48:08;;;;;;;15.70;14.90;;;23.10;97.90;;;;;;2570227;54;20395;-59
2021/08/24 08:50:44;;;;;;;16.67;15.47;;;23.10;98.00;;;;;;2570170;54;20403;-60
2021/08/24 08:53:19;;;;;;;15.57;14.87;;;23.10;98.00;;;;;;2569372;47;20984;-60
2021/08/24 08:55:56;;;;;;;16.00;14.97;;;23.10;97.60;;;;;;2565557;31;20953;-61
2021/08/24 08:58:35;;;;;;;15.83;14.83;;;23.10;97.60;;;;;;2569745;54;20410;-61
2021/08/24 09:01:15;;;;;;;16.17;15.20;;;23.10;97.70;;;;;;2564326;54;20469;-62
2021/08/24 09:03:54;;;;;;;17.27;16.20;;;23.10;97.80;;;;;;2568556;54;20427;-60
2021/08/24 09:06:27;;;;;;;15.63;14.93;;;23.10;97.80;;;;;;2571913;54;20407;-61
2021/08/24 09:08:58;;;;;;;15.30;14.50;;;23.10;97.80;;;;;;2566660;54;20429;-61
2021/08/24 09:11:34;;;;;;;16.23;15.40;;;23.10;97.80;;;;;;2567036;54;20402;-60
2021/08/24 09:14:08;;;;;;;15.97;15.07;;;23.10;97.90;;;;;;2563629;54;20417;-60
2021/08/24 09:16:40;;;;;;;16.67;15.87;;;23.10;97.80;;;;;;2565449;54;21219;-60
2021/08/24 09:19:15;;;;;;;17.37;15.93;;;23.10;97.80;;;;;;2562284;54;20402;-60
2021/08/24 09:21:48;;;;;;;17.07;15.93;;;23.10;97.70;;;;;;2567373;54;20411;-60
2021/08/24 09:24:20;;;;;;;15.93;15.20;;;23.10;97.80;;;;;;2566438;54;20414;-60
2021/08/24 09:26:57;;;;;;;16.47;15.77;;;23.10;97.80;;;;;;2564316;54;20410;-60
2021/08/24 09:29:30;;;;;;;16.83;15.80;;;23.10;97.80;;;;;;2571262;39;21179;-59
2021/08/24 09:31:59;;;;;;;17.10;16.00;;;23.10;97.70;;;;;;2568790;54;21167;-60
2021/08/24 09:34:30;;;;;;;15.77;14.93;;;23.10;97.80;;;;;;2566135;54;20418;-59
2021/08/24 09:37:00;;;;;;;17.10;16.20;;;23.10;97.80;;;;;;2572046;54;20423;-60
2021/08/24 09:40:00;;;;;;;17.67;16.60;;;23.10;97.80;;;;;;2564393;54;20888;-60
2021/08/24 09:42:36;;;;;;;17.17;16.37;;;23.10;97.80;;;;;;2567642;51;20438;-60
2021/08/24 09:45:28;;;;;;;17.73;16.80;;;23.10;97.80;;;;;;2569985;54;20398;-59
2021/08/24 09:48:11;;;;;;;16.80;16.00;;;23.10;97.80;;;;;;2571371;54;20427;-60
2021/08/24 09:50:43;;;;;;;17.40;16.50;;;23.10;97.80;;;;;;2564313;54;20445;-60
2021/08/24 09:53:30;;;;;;;17.07;16.10;;;23.10;97.80;;;;;;2567399;47;20418;-59
2021/08/24 09:56:00;;;;;;;17.03;16.23;;;23.10;97.90;;;;;;2569203;54;20462;-60
2021/08/24 09:58:38;;;;;;;16.17;15.47;;;23.10;97.80;;;;;;2568691;54;20521;-60
2021/08/24 10:01:10;;;;;;;16.10;15.30;;;23.10;97.90;;;;;;2561787;54;20383;-59
2021/08/24 10:03:42;;;;;;;17.63;16.70;;;23.10;97.90;;;;;;2572151;54;21336;-60
2021/08/24 10:06:28;;;;;;;17.40;16.50;;;23.10;97.90;;;;;;2569135;54;20501;-60
2021/08/24 10:09:14;;;;;;;16.77;15.97;;;23.10;97.90;;;;;;2567022;54;21011;-60
2021/08/24 10:11:43;;;;;;;16.80;15.90;;;23.10;97.90;;;;;;2568424;54;20425;-60
2021/08/24 10:14:23;;;;;;;17.20;16.30;;;23.10;98.00;;;;;;2567716;54;21489;-60
2021/08/24 10:16:57;;;;;;;17.00;15.70;;;23.10;97.90;;;;;;2571719;54;20375;-60
2021/08/24 10:19:30;;;;;;;16.37;15.47;;;23.10;97.90;;;;;;2570232;54;20468;-60
2021/08/24 10:22:02;;;;;;;16.33;15.60;;;23.10;97.90;;;;;;2566246;54;20423;-60
2021/08/24 10:24:35;;;;;;;18.77;17.17;;;23.10;97.90;;;;;;2572517;47;20462;-60
2021/08/24 10:27:12;;;;;;;18.00;17.10;;;23.10;97.90;;;;;;2568888;54;20387;-59
2021/08/24 10:29:49;;;;;;;18.43;17.33;;;23.10;98.00;;;;;;2578045;52;20415;-60
2021/08/24 10:32:28;;;;;;;17.50;16.57;;;23.10;97.90;;;;;;2569994;54;20405;-61
2021/08/24 10:35:00;;;;;;;19.03;17.97;;;23.10;97.90;;;;;;2568126;54;20371;-61
2021/08/24 10:37:39;;;;;;;17.97;17.07;;;23.10;97.90;;;;;;2569450;54;20411;-61
2021/08/24 10:40:29;;;;;;;18.67;17.63;;;23.10;98.00;;;;;;2572197;54;20421;-61
